createdAt,value
2018-08-09T00:01:19.368Z,101177.59
2018-08-09T00:03:48.207Z,101178.36
2018-08-09T00:06:17.086Z,101174.53
2018-08-09T00:08:45.967Z,101173.47
2018-08-09T00:11:14.893Z,101178.70
2018-08-09T00:13:43.752Z,101177.88
2018-08-09T00:16:12.656Z,101179.75
2018-08-09T00:18:41.568Z,101177.03
2018-08-09T00:21:10.455Z,101183.91
2018-08-09T00:23:39.337Z,101182.28
2018-08-09T00:26:08.244Z,101168.87
2018-08-09T00:28:37.121Z,101162.33
2018-08-09T00:31:06.299Z,101172.73
2018-08-09T00:33:35.389Z,101168.61
2018-08-09T00:36:04.504Z,101167.27
2018-08-09T00:38:33.376Z,101175.72
2018-08-09T00:41:02.256Z,101174.11
2018-08-09T00:43:31.193Z,101175.19
2018-08-09T00:46:00.090Z,101177.09
2018-08-09T00:48:28.999Z,101174.34
2018-08-09T00:50:57.913Z,101176.58
2018-08-09T00:53:26.869Z,101165.64
2018-08-09T00:55:55.804Z,101166.17
2018-08-09T00:58:24.716Z,101170.03
2018-08-09T01:00:53.619Z,101153.08
2018-08-09T01:03:22.515Z,101151.98
2018-08-09T01:05:51.412Z,101140.21
2018-08-09T01:08:20.281Z,101149.81
2018-08-09T01:10:49.464Z,101152.03
2018-08-09T01:13:18.417Z,101147.93
2018-08-09T01:15:47.314Z,101151.47
2018-08-09T01:18:16.249Z,101147.92
2018-08-09T01:20:45.140Z,101151.19
2018-08-09T01:23:14.034Z,101148.73
2018-08-09T01:25:42.921Z,101152.82
2018-08-09T01:28:11.863Z,101157.48
2018-08-09T01:30:40.710Z,101155.83
2018-08-09T01:33:09.611Z,101151.14
2018-08-09T01:35:38.505Z,101154.45
2018-08-09T01:38:07.413Z,101141.59
2018-08-09T01:40:36.288Z,101139.98
2018-08-09T01:43:16.418Z,101139.45
2018-08-09T01:45:45.329Z,101139.44
2018-08-09T01:48:14.233Z,101130.14
2018-08-09T01:50:43.139Z,101127.12
2018-08-09T01:53:12.028Z,101127.45
2018-08-09T01:55:41.948Z,101118.39
2018-08-09T01:58:10.816Z,101118.11
2018-08-09T02:00:39.727Z,101123.05
2018-08-09T02:03:08.609Z,101107.73
2018-08-09T02:05:37.611Z,101096.52
2018-08-09T02:08:06.509Z,101097.08
2018-08-09T02:10:35.448Z,101106.12
2018-08-09T02:13:04.341Z,101106.12
2018-08-09T02:15:33.292Z,101102.03
2018-08-09T02:18:02.138Z,101086.98
2018-08-09T02:20:31.033Z,101090.28
2018-08-09T02:22:59.909Z,101099.58
2018-08-09T02:25:29.116Z,101098.77
2018-08-09T02:27:57.988Z,101090.58
2018-08-09T02:30:26.873Z,101084.53
2018-08-09T02:32:55.772Z,101087.55
2018-08-09T02:35:24.747Z,101076.64
2018-08-09T02:37:53.713Z,101071.98
2018-08-09T02:40:22.737Z,101075.56
2018-08-09T02:42:51.666Z,101071.69
2018-08-09T02:45:20.586Z,101081.55
2018-08-09T02:47:49.488Z,101063.80
2018-08-09T02:50:18.373Z,101078.51
2018-08-09T02:52:47.344Z,101077.14
2018-08-09T02:55:16.231Z,101070.60
2018-08-09T02:57:45.142Z,101062.41
2018-08-09T03:00:14.024Z,101055.30
2018-08-09T03:02:42.889Z,101060.78
2018-08-09T03:05:11.824Z,101047.94
2018-08-09T03:07:40.714Z,101044.10
2018-08-09T03:10:09.657Z,101040.01
2018-08-09T03:12:38.603Z,101047.63
2018-08-09T03:15:07.507Z,101048.70
2018-08-09T03:17:36.659Z,101054.42
2018-08-09T03:20:05.602Z,101058.49
2018-08-09T03:22:34.557Z,101059.03
2018-08-09T03:25:03.511Z,101060.39
2018-08-09T03:27:32.608Z,101060.89
2018-08-09T03:30:01.785Z,101066.09
2018-08-09T03:32:30.661Z,101057.89
2018-08-09T03:34:59.540Z,101039.25
2018-08-09T03:37:28.771Z,101031.32
2018-08-09T03:39:57.774Z,101029.66
2018-08-09T03:42:26.660Z,101030.55
2018-08-09T03:44:55.568Z,101037.95
2018-08-09T03:47:24.474Z,101037.41
2018-08-09T03:49:53.406Z,101032.16
2018-08-09T03:52:22.316Z,101029.98
2018-08-09T03:54:51.262Z,101031.61
2018-08-09T03:57:20.130Z,101032.39
2018-08-09T03:59:49.097Z,101042.23
2018-08-09T04:02:17.932Z,101046.94
2018-08-09T04:04:46.840Z,101055.94
2018-08-09T04:07:15.745Z,101050.73
2018-08-09T04:09:44.681Z,101043.92
2018-08-09T04:12:13.651Z,101044.69
2018-08-09T04:14:42.586Z,101045.77
2018-08-09T04:17:17.078Z,101044.22
2018-08-09T04:19:46.171Z,101043.89
2018-08-09T04:22:15.030Z,101036.20
2018-08-09T04:24:43.948Z,101040.31
2018-08-09T04:27:13.012Z,101044.33
2018-08-09T04:29:41.950Z,101045.98
2018-08-09T04:32:10.865Z,101054.73
2018-08-09T04:34:39.768Z,101061.33
2018-08-09T04:37:09.166Z,101059.36
2018-08-09T04:39:38.211Z,101056.35
2018-08-09T04:42:07.194Z,101047.82
2018-08-09T04:44:36.237Z,101049.99
2018-08-09T04:47:05.256Z,101050.56
2018-08-09T04:49:34.158Z,101047.52
2018-08-09T04:52:03.044Z,101052.45
2018-08-09T04:54:31.911Z,101053.27
2018-08-09T04:57:00.941Z,101052.94
2018-08-09T04:59:29.852Z,101043.89
2018-08-09T05:01:58.746Z,101038.14
2018-08-09T05:04:27.638Z,101038.44
2018-08-09T05:06:56.818Z,101036.23
2018-08-09T05:09:25.898Z,101026.39
2018-08-09T05:11:54.808Z,101031.41
2018-08-09T05:14:23.715Z,101023.69
2018-08-09T05:16:52.669Z,101027.47
2018-08-09T05:19:21.624Z,101024.49
2018-08-09T05:21:50.533Z,101024.16
2018-08-09T05:24:19.498Z,101016.72
2018-08-09T05:26:48.354Z,101016.77
2018-08-09T05:29:17.255Z,101012.87
2018-08-09T05:31:46.143Z,101009.85
2018-08-09T05:34:15.129Z,101000.52
2018-08-09T05:36:44.040Z,101000.02
2018-08-09T05:39:13.023Z,101005.22
2018-08-09T05:41:42.273Z,101003.25
2018-08-09T05:44:11.293Z,101005.45
2018-08-09T05:46:40.166Z,101000.44
2018-08-09T05:49:09.928Z,100985.63
2018-08-09T05:51:38.814Z,100986.56
2018-08-09T05:54:07.705Z,100989.81
2018-08-09T05:56:36.652Z,100979.09
2018-08-09T05:59:05.601Z,100971.48
2018-08-09T06:01:34.596Z,100973.38
2018-08-09T06:04:04.638Z,100980.78
2018-08-09T06:06:33.863Z,100986.39
2018-08-09T06:09:02.838Z,100986.56
2018-08-09T06:11:31.798Z,100985.17
2018-08-09T06:14:00.747Z,100982.91
2018-08-09T06:16:29.785Z,100990.59
2018-08-09T06:18:58.917Z,100988.81
2018-08-09T06:21:27.769Z,100982.41
2018-08-09T06:23:56.677Z,100970.13
2018-08-09T06:26:26.808Z,100967.34
2018-08-09T06:28:55.630Z,100963.03
2018-08-09T06:31:24.662Z,100959.58
2018-08-09T06:33:53.587Z,100951.57
2018-08-09T06:36:22.501Z,100956.22
2018-08-09T06:38:52.416Z,100944.51
2018-08-09T06:41:21.298Z,100937.93
2018-08-09T06:43:50.201Z,100938.52
2018-08-09T06:46:19.140Z,100938.20
2018-08-09T06:48:48.040Z,100946.87
2018-08-09T06:51:16.934Z,100946.69
2018-08-09T06:53:45.848Z,100942.34
2018-08-09T06:56:14.780Z,100942.16
2018-08-09T06:58:43.664Z,100938.30
2018-08-09T07:01:12.526Z,100930.64
2018-08-09T07:03:41.426Z,100930.58
2018-08-09T07:06:10.319Z,100921.52
2018-08-09T07:08:39.316Z,100917.20
2018-08-09T07:11:08.210Z,100909.62
2018-08-09T07:13:37.096Z,100906.41
2018-08-09T07:16:06.093Z,100907.36
2018-08-09T07:18:34.990Z,100908.73
2018-08-09T07:21:04.003Z,100910.49
2018-08-09T07:23:32.886Z,100910.97
2018-08-09T07:26:01.807Z,100914.51
2018-08-09T07:28:30.684Z,100923.44
2018-08-09T07:30:59.624Z,100915.75
2018-08-09T07:33:28.635Z,100922.60
2018-08-09T07:35:57.518Z,100922.13
2018-08-09T07:38:27.990Z,100920.04
2018-08-09T07:40:56.868Z,100916.35
2018-08-09T07:43:25.754Z,100919.63
2018-08-09T07:45:54.640Z,100917.45
2018-08-09T07:48:23.572Z,100913.16
2018-08-09T07:50:52.408Z,100904.49
2018-08-09T07:53:21.290Z,100910.78
2018-08-09T07:55:50.219Z,100907.39
2018-08-09T07:58:19.119Z,100900.45
2018-08-09T08:00:48.089Z,100897.95
2018-08-09T08:03:17.099Z,100898.06
2018-08-09T08:05:45.961Z,100895.03
2018-08-09T08:08:14.910Z,100877.80
2018-08-09T08:10:43.813Z,100869.48
2018-08-09T08:13:12.788Z,100864.98
2018-08-09T08:15:41.671Z,100859.03
2018-08-09T08:18:10.547Z,100840.09
2018-08-09T08:20:39.464Z,100827.98
2018-08-09T08:23:08.407Z,100818.14
2018-08-09T08:25:37.315Z,100820.25
2018-08-09T08:28:06.178Z,100813.59
2018-08-09T08:30:35.192Z,100815.27
2018-08-09T08:33:04.425Z,100818.33
2018-08-09T08:35:33.294Z,100813.30
2018-08-09T08:38:02.297Z,100805.25
2018-08-09T08:40:31.181Z,100799.45
2018-08-09T08:43:00.130Z,100792.80
2018-08-09T08:45:29.046Z,100801.22
2018-08-09T08:47:58.006Z,100813.02
2018-08-09T08:50:26.917Z,100807.83
2018-08-09T08:52:55.805Z,100805.94
2018-08-09T08:55:24.699Z,100801.92
2018-08-09T08:57:53.590Z,100795.10
2018-08-09T09:00:22.500Z,100797.52
2018-08-09T09:02:51.392Z,100791.81
2018-08-09T09:05:20.286Z,100785.53
2018-08-09T09:07:49.181Z,100779.98
2018-08-09T09:10:18.099Z,100773.64
2018-08-09T09:12:46.972Z,100769.18
2018-08-09T09:15:16.238Z,100758.41
2018-08-09T09:17:45.249Z,100752.08
2018-08-09T09:20:17.342Z,100759.46
2018-08-09T09:22:46.716Z,100756.47
2018-08-09T09:25:16.093Z,100746.68
2018-08-09T09:27:45.188Z,100740.61
2018-08-09T09:30:16.560Z,100745.88
2018-08-09T09:32:45.748Z,100743.94
2018-08-09T09:35:14.692Z,100723.47
2018-08-09T09:37:43.899Z,100724.92
2018-08-09T09:40:12.976Z,100720.48
2018-08-09T09:42:41.928Z,100720.42
2018-08-09T09:45:10.927Z,100716.86
2018-08-09T09:47:39.800Z,100706.23
2018-08-09T09:50:09.834Z,100697.05
2018-08-09T09:52:38.726Z,100685.23
2018-08-09T09:55:08.681Z,100682.62
2018-08-09T09:57:37.986Z,100674.00
2018-08-09T10:00:12.210Z,100658.40
2018-08-09T10:02:41.082Z,100665.88
2018-08-09T10:05:10.110Z,100654.56
2018-08-09T10:07:38.985Z,100638.95
2018-08-09T10:10:07.986Z,100626.52
2018-08-09T10:12:36.906Z,100616.33
2018-08-09T10:15:06.804Z,100598.50
2018-08-09T10:17:36.064Z,100595.69
2018-08-09T10:20:05.569Z,100594.14
2018-08-09T10:22:34.517Z,100584.38
2018-08-09T10:25:03.515Z,100588.38
2018-08-09T10:27:32.384Z,100578.66
2018-08-09T10:30:01.353Z,100574.06
2018-08-09T10:32:30.179Z,100579.74
2018-08-09T10:34:59.119Z,100576.31
2018-08-09T10:37:28.056Z,100567.22
2018-08-09T10:39:57.035Z,100547.66
2018-08-09T10:42:26.019Z,100539.52
2018-08-09T10:44:55.022Z,100534.69
2018-08-09T10:47:24.168Z,100518.09
2018-08-09T10:49:53.513Z,100510.63
2018-08-09T10:52:22.476Z,100509.52
2018-08-09T10:54:51.394Z,100493.84
2018-08-09T10:57:21.426Z,100488.26
2018-08-09T10:59:50.357Z,100478.92
2018-08-09T11:02:19.294Z,100474.23
2018-08-09T11:04:48.216Z,100467.34
2018-08-09T11:07:17.224Z,100454.44
2018-08-09T11:09:46.122Z,100459.30
2018-08-09T11:12:15.006Z,100451.47
2018-08-09T11:14:43.926Z,100437.70
2018-08-09T11:17:13.232Z,100433.90
2018-08-09T11:19:42.526Z,100436.58
2018-08-09T11:22:11.457Z,100425.34
2018-08-09T11:24:40.338Z,100413.52
2018-08-09T11:27:09.372Z,100420.75
2018-08-09T11:29:38.367Z,100425.62
2018-08-09T11:32:07.309Z,100412.33
2018-08-09T11:34:36.215Z,100399.80
2018-08-09T11:37:05.375Z,100387.55
2018-08-09T11:39:34.297Z,100378.89
2018-08-09T11:42:03.207Z,100378.16
2018-08-09T11:44:32.173Z,100387.97
2018-08-09T11:47:01.204Z,100385.06
2018-08-09T11:49:30.115Z,100380.09
2018-08-09T11:51:59.038Z,100382.17
2018-08-09T11:54:28.080Z,100376.23
2018-08-09T11:56:57.268Z,100380.48
2018-08-09T11:59:26.256Z,100365.67
2018-08-09T12:01:55.174Z,100364.69
2018-08-09T12:04:24.234Z,100361.00
2018-08-09T12:06:53.165Z,100356.62
2018-08-09T12:09:22.261Z,100351.25
2018-08-09T12:11:51.164Z,100345.30
2018-08-09T12:14:20.112Z,100339.35
2018-08-09T12:16:49.298Z,100343.56
2018-08-09T12:19:18.404Z,100334.00
2018-08-09T12:21:47.318Z,100312.34
2018-08-09T12:24:16.346Z,100311.45
2018-08-09T12:26:45.269Z,100301.00
2018-08-09T12:29:14.444Z,100307.67
2018-08-09T12:31:43.333Z,100317.56
2018-08-09T12:34:12.244Z,100315.84
2018-08-09T12:36:42.214Z,100321.95
2018-08-09T12:39:12.600Z,100318.83
2018-08-09T12:41:41.830Z,100319.36
2018-08-09T12:44:11.144Z,100310.87
2018-08-09T12:46:40.126Z,100305.02
2018-08-09T12:49:09.594Z,100300.46
2018-08-09T12:51:38.489Z,100285.70
2018-08-09T12:54:07.424Z,100279.09
2018-08-09T12:56:36.435Z,100268.98
2018-08-09T12:59:05.398Z,100265.74
2018-08-09T13:01:34.825Z,100266.72
2018-08-09T13:04:03.957Z,100270.05
2018-08-09T13:06:32.956Z,100272.25
2018-08-09T13:09:02.416Z,100293.29
2018-08-09T13:11:31.866Z,100293.12
2018-08-09T13:14:01.333Z,100293.55
2018-08-09T13:16:30.831Z,100281.59
2018-08-09T13:19:00.380Z,100266.73
2018-08-09T13:21:29.681Z,100273.39
2018-08-09T13:23:59.053Z,100271.77
2018-08-09T13:26:28.008Z,100265.64
2018-08-09T13:28:56.939Z,100239.17
2018-08-09T13:31:25.941Z,100230.72
2018-08-09T13:33:54.941Z,100247.03
2018-08-09T13:36:24.154Z,100252.30
2018-08-09T13:38:53.167Z,100260.56
2018-08-09T13:41:22.147Z,100253.59
2018-08-09T13:43:51.349Z,100271.55
2018-08-09T13:46:20.437Z,100272.75
2018-08-09T13:48:49.371Z,100274.53
2018-08-09T13:51:18.285Z,100278.03
2018-08-09T13:53:47.329Z,100276.66
2018-08-09T13:56:16.275Z,100287.59
2018-08-09T13:58:45.169Z,100279.36
2018-08-09T14:01:14.087Z,100294.89
2018-08-09T14:03:43.123Z,100296.38
2018-08-09T14:06:12.722Z,100295.50
2018-08-09T14:08:43.155Z,100301.13
2018-08-09T14:11:12.063Z,100297.02
2018-08-09T14:13:41.182Z,100299.99
2018-08-09T14:16:10.504Z,100296.06
2018-08-09T14:18:39.768Z,100305.17
2018-08-09T14:21:08.746Z,100297.58
2018-08-09T14:23:37.652Z,100308.63
2018-08-09T14:26:06.570Z,100308.39
2018-08-09T14:28:35.512Z,100315.77
2018-08-09T14:31:04.491Z,100326.20
2018-08-09T14:33:33.585Z,100329.66
2018-08-09T14:36:02.723Z,100333.37
2018-08-09T14:38:32.036Z,100349.80
2018-08-09T14:41:01.304Z,100346.27
2018-08-09T14:43:30.677Z,100360.92
2018-08-09T14:46:02.843Z,100361.95
2018-08-09T14:48:33.064Z,100381.92
2018-08-09T14:51:02.876Z,100370.67
2018-08-09T14:53:31.762Z,100366.31
2018-08-09T14:56:00.707Z,100377.44
2018-08-09T14:58:30.891Z,100378.36
2018-08-09T15:00:59.854Z,100388.48
2018-08-09T15:03:28.760Z,100397.22
2018-08-09T15:05:57.762Z,100404.55
2018-08-09T15:08:26.779Z,100406.45
2018-08-09T15:10:55.760Z,100396.06
2018-08-09T15:13:24.761Z,100401.77
2018-08-09T15:15:53.679Z,100401.30
2018-08-09T15:18:22.836Z,100402.87
2018-08-09T15:20:51.837Z,100405.47
2018-08-09T15:23:20.754Z,100409.87
2018-08-09T15:25:49.606Z,100407.54
2018-08-09T15:28:19.140Z,100407.44
2018-08-09T15:30:48.193Z,100411.26
2018-08-09T15:33:17.052Z,100408.43
2018-08-09T15:35:45.996Z,100405.75
2018-08-09T15:38:16.108Z,100398.70
2018-08-09T15:40:45.024Z,100396.03
2018-08-09T15:43:13.996Z,100390.77
2018-08-09T15:45:44.177Z,100396.36
2018-08-09T15:48:15.167Z,100385.26
2018-08-09T15:50:44.173Z,100387.59
2018-08-09T15:53:13.490Z,100380.15
2018-08-09T15:55:42.430Z,100382.73
2018-08-09T15:58:11.583Z,100374.31
2018-08-09T16:00:40.803Z,100378.02
2018-08-09T16:03:09.696Z,100372.33
2018-08-09T16:05:38.665Z,100368.69
2018-08-09T16:08:07.658Z,100374.13
2018-08-09T16:10:36.553Z,100376.19
2018-08-09T16:13:05.464Z,100358.14
2018-08-09T16:15:34.391Z,100363.26
2018-08-09T16:18:04.064Z,100366.17
2018-08-09T16:20:32.964Z,100370.55
2018-08-09T16:23:01.920Z,100367.98
2018-08-09T16:25:30.827Z,100374.93
2018-08-09T16:27:59.778Z,100366.17
2018-08-09T16:30:28.708Z,100361.23
2018-08-09T16:32:57.705Z,100358.59
2018-08-09T16:35:26.891Z,100356.33
2018-08-09T16:37:57.172Z,100353.57
2018-08-09T16:40:27.354Z,100351.40
2018-08-09T16:42:56.232Z,100338.31
2018-08-09T16:45:25.600Z,100343.24
2018-08-09T16:47:55.008Z,100336.64
2018-08-09T16:50:25.107Z,100343.20
2018-08-09T16:52:54.130Z,100341.53
2018-08-09T16:55:24.263Z,100347.53
2018-08-09T16:57:53.224Z,100345.96
2018-08-09T17:00:23.377Z,100345.63
2018-08-09T17:02:53.365Z,100342.16
2018-08-09T17:05:23.596Z,100336.11
2018-08-09T17:07:52.585Z,100317.53
2018-08-09T17:10:22.580Z,100329.66
2018-08-09T17:12:51.715Z,100328.13
2018-08-09T17:15:21.749Z,100355.75
2018-08-09T17:17:50.888Z,100350.95
2018-08-09T17:20:25.016Z,100355.27
2018-08-09T17:22:53.990Z,100376.13
2018-08-09T17:25:23.493Z,100366.91
2018-08-09T17:27:53.112Z,100365.38
2018-08-09T17:30:24.162Z,100356.70
2018-08-09T17:32:53.318Z,100367.48
2018-08-09T17:35:22.336Z,100368.21
2018-08-09T17:37:51.638Z,100370.51
2018-08-09T17:40:26.793Z,100370.84
2018-08-09T17:42:57.692Z,100377.08
2018-08-09T17:45:28.138Z,100396.65
2018-08-09T17:47:57.170Z,100436.41
2018-08-09T17:50:26.187Z,100452.78
2018-08-09T17:52:56.386Z,100462.01
2018-08-09T17:55:25.319Z,100478.70
2018-08-09T17:57:54.710Z,100472.95
2018-08-09T18:00:25.581Z,100474.13
2018-08-09T18:02:54.619Z,100483.77
2018-08-09T18:05:23.662Z,100488.50
2018-08-09T18:07:55.640Z,100501.05
2018-08-09T18:10:26.982Z,100508.91
2018-08-09T18:12:56.006Z,100512.85
2018-08-09T18:15:26.386Z,100509.64
2018-08-09T18:17:55.781Z,100528.50
2018-08-09T18:20:27.797Z,100526.95
2018-08-09T18:22:56.958Z,100536.00
2018-08-09T18:25:25.985Z,100526.72
2018-08-09T18:27:54.870Z,100553.88
2018-08-09T18:30:23.740Z,100554.89
2018-08-09T18:32:52.682Z,100548.92
2018-08-09T18:35:21.568Z,100556.57
2018-08-09T18:37:50.567Z,100559.14
2018-08-09T18:40:23.458Z,100573.50
2018-08-09T18:42:52.480Z,100575.04
2018-08-09T18:45:21.844Z,100582.07
2018-08-09T18:47:50.806Z,100589.00
2018-08-09T18:50:28.748Z,100581.54
2018-08-09T18:52:57.754Z,100591.66
2018-08-09T18:55:26.745Z,100605.59
2018-08-09T18:57:55.976Z,100611.38
2018-08-09T19:00:26.873Z,100620.67
2018-08-09T19:02:55.981Z,100621.94
2018-08-09T19:05:25.350Z,100621.97
2018-08-09T19:07:54.423Z,100625.86
2018-08-09T19:10:24.881Z,100644.35
2018-08-09T19:12:53.802Z,100649.64
2018-08-09T19:15:22.768Z,100645.92
2018-08-09T19:17:52.423Z,100650.47
2018-08-09T19:20:35.979Z,100644.92
2018-08-09T19:23:06.045Z,100653.33
2018-08-09T19:25:35.964Z,100671.39
2018-08-09T19:28:04.893Z,100669.08
2018-08-09T19:30:33.811Z,100668.77
2018-08-09T19:33:02.684Z,100674.25
2018-08-09T19:35:31.571Z,100670.95
2018-08-09T19:38:00.470Z,100673.41
2018-08-09T19:40:30.254Z,100682.13
2018-08-09T19:43:00.271Z,100684.03
2018-08-09T19:45:29.187Z,100692.58
2018-08-09T19:47:58.504Z,100698.80
2018-08-09T19:50:27.575Z,100696.16
2018-08-09T19:52:56.790Z,100684.94
2018-08-09T19:55:26.535Z,100700.53
2018-08-09T19:57:55.584Z,100705.59
2018-08-09T20:00:27.200Z,100699.16
2018-08-09T20:02:56.076Z,100709.88
2018-08-09T20:05:25.166Z,100707.47
2018-08-09T20:07:54.103Z,100706.13
2018-08-09T20:10:23.006Z,100714.45
2018-08-09T20:12:51.966Z,100723.05
2018-08-09T20:15:22.754Z,100739.92
2018-08-09T20:17:51.757Z,100747.92
2018-08-09T20:20:22.257Z,100746.25
2018-08-09T20:22:51.168Z,100762.05
2018-08-09T20:25:20.198Z,100761.59
2018-08-09T20:27:49.257Z,100755.41
2018-08-09T20:30:18.823Z,100772.89
2018-08-09T20:32:48.131Z,100773.55
2018-08-09T20:35:23.907Z,100779.88
2018-08-09T20:37:53.207Z,100778.30
2018-08-09T20:40:23.184Z,100768.25
2018-08-09T20:42:53.201Z,100765.30
2018-08-09T20:45:23.196Z,100772.53
2018-08-09T20:47:52.292Z,100776.66
2018-08-09T20:50:24.860Z,100791.72
2018-08-09T20:52:53.729Z,100793.66
2018-08-09T20:55:22.827Z,100787.41
2018-08-09T20:57:52.500Z,100787.69
2018-08-09T21:00:24.345Z,100789.70
2018-08-09T21:02:54.743Z,100828.77
2018-08-09T21:05:29.260Z,100828.48
2018-08-09T21:07:58.887Z,100823.59
2018-08-09T21:10:28.305Z,100847.73
2018-08-09T21:12:57.294Z,100863.62
2018-08-09T21:15:26.499Z,100897.47
2018-08-09T21:17:55.464Z,100868.81
2018-08-09T21:20:24.381Z,100865.87
2018-08-09T21:22:53.328Z,100881.48
2018-08-09T21:25:22.231Z,100878.16
2018-08-09T21:27:51.352Z,100882.84
2018-08-09T21:30:21.507Z,100898.97
2018-08-09T21:32:50.919Z,100890.39
2018-08-09T21:35:19.865Z,100906.31
2018-08-09T21:37:48.805Z,100908.51
2018-08-09T21:40:17.751Z,100923.25
2018-08-09T21:42:46.729Z,100931.13
2018-08-09T21:45:17.125Z,100936.33
2018-08-09T21:47:46.263Z,100941.53
2018-08-09T21:50:18.017Z,100948.61
2018-08-09T21:52:46.925Z,100949.98
2018-08-09T21:55:15.885Z,100970.14
2018-08-09T21:57:45.600Z,100971.80
2018-08-09T22:00:51.688Z,100985.14
2018-08-09T22:03:22.572Z,100990.65
2018-08-09T22:05:56.988Z,101001.23
2018-08-09T22:08:30.961Z,101000.98
2018-08-09T22:11:05.137Z,101009.45
2018-08-09T22:13:39.323Z,101021.84
2018-08-09T22:16:13.935Z,101022.41
2018-08-09T22:18:48.289Z,101035.50
2018-08-09T22:21:22.722Z,101063.39
2018-08-09T22:23:51.623Z,101050.25
2018-08-09T22:26:20.570Z,101077.18
2018-08-09T22:28:49.542Z,101070.67
2018-08-09T22:31:18.478Z,101078.18
2018-08-09T22:33:47.435Z,101084.63
2018-08-09T22:36:16.543Z,101097.48
2018-08-09T22:38:45.949Z,101120.36
2018-08-09T22:41:14.875Z,101098.64
2018-08-09T22:43:44.349Z,101109.41
2018-08-09T22:46:13.857Z,101111.97
2018-08-09T22:48:43.053Z,101131.50
2018-08-09T22:51:12.557Z,101144.08
2018-08-09T22:53:42.003Z,101147.38
2018-08-09T22:56:11.447Z,101138.52
2018-08-09T22:58:40.938Z,101155.33
2018-08-09T23:01:10.352Z,101162.50
2018-08-09T23:03:39.888Z,101166.55
2018-08-09T23:06:09.330Z,101174.62
2018-08-09T23:08:38.628Z,101182.95
2018-08-09T23:11:08.450Z,101186.97
2018-08-09T23:13:37.733Z,101195.41
2018-08-09T23:16:07.344Z,101198.19
2018-08-09T23:18:36.742Z,101198.69
2018-08-09T23:21:06.020Z,101212.00
2018-08-09T23:23:35.393Z,101218.04
2018-08-09T23:26:04.484Z,101218.33
2018-08-09T23:28:33.550Z,101212.52
2018-08-09T23:31:02.437Z,101223.48
2018-08-09T23:33:31.547Z,101235.16
2018-08-09T23:36:00.461Z,101242.89
2018-08-09T23:38:29.345Z,101245.48
2018-08-09T23:40:58.237Z,101247.86
2018-08-09T23:43:27.267Z,101249.82
2018-08-09T23:45:56.118Z,101253.06
2018-08-09T23:48:25.016Z,101260.08
2018-08-09T23:50:53.928Z,101268.66
2018-08-09T23:53:22.780Z,101272.75
2018-08-09T23:55:51.662Z,101275.27
2018-08-09T23:58:20.803Z,101294.53
